sensor_id;sensor_type;location;lat;lon;timestamp;P1;durP1;ratioP1;P2;durP2;ratioP2
5555;SDS011;2801;50.972;7.856;2023-04-06T00:01:01;16.13;;;8.93;;
5555;SDS011;2801;50.972;7.856;2023-04-06T00:03:28;20.17;;;10.90;;
5555;SDS011;2801;50.972;7.856;2023-04-06T00:05:55;17.27;;;9.77;;
5555;SDS011;2801;50.972;7.856;2023-04-06T00:08:22;22.30;;;11.80;;
5555;SDS011;2801;50.972;7.856;2023-04-06T00:10:50;19.83;;;10.77;;
5555;SDS011;2801;50.972;7.856;2023-04-06T00:13:17;19.00;;;11.07;;
5555;SDS011;2801;50.972;7.856;2023-04-06T00:15:44;20.70;;;10.73;;
5555;SDS011;2801;50.972;7.856;2023-04-06T00:18:11;16.57;;;8.97;;
5555;SDS011;2801;50.972;7.856;2023-04-06T00:20:38;19.30;;;9.63;;
5555;SDS011;2801;50.972;7.856;2023-04-06T00:23:05;18.47;;;10.50;;
5555;SDS011;2801;50.972;7.856;2023-04-06T00:25:32;19.33;;;10.07;;
5555;SDS011;2801;50.972;7.856;2023-04-06T00:28:00;18.20;;;10.27;;
5555;SDS011;2801;50.972;7.856;2023-04-06T00:30:27;16.07;;;9.80;;
5555;SDS011;2801;50.972;7.856;2023-04-06T00:32:54;16.23;;;9.30;;
5555;SDS011;2801;50.972;7.856;2023-04-06T00:35:21;15.73;;;9.37;;
5555;SDS011;2801;50.972;7.856;2023-04-06T00:37:48;16.27;;;9.20;;
5555;SDS011;2801;50.972;7.856;2023-04-06T00:40:15;15.93;;;9.07;;
5555;SDS011;2801;50.972;7.856;2023-04-06T00:42:43;18.30;;;9.27;;
5555;SDS011;2801;50.972;7.856;2023-04-06T00:45:10;14.47;;;8.87;;
5555;SDS011;2801;50.972;7.856;2023-04-06T00:47:37;16.70;;;9.40;;
5555;SDS011;2801;50.972;7.856;2023-04-06T00:50:04;14.57;;;8.73;;
5555;SDS011;2801;50.972;7.856;2023-04-06T00:52:33;15.17;;;8.20;;
5555;SDS011;2801;50.972;7.856;2023-04-06T00:55:02;16.47;;;8.23;;
5555;SDS011;2801;50.972;7.856;2023-04-06T00:57:30;17.27;;;8.83;;
5555;SDS011;2801;50.972;7.856;2023-04-06T00:59:58;16.30;;;8.03;;
5555;SDS011;2801;50.972;7.856;2023-04-06T01:02:25;13.63;;;7.97;;
5555;SDS011;2801;50.972;7.856;2023-04-06T01:04:52;14.47;;;8.47;;
5555;SDS011;2801;50.972;7.856;2023-04-06T01:07:21;13.37;;;7.87;;
5555;SDS011;2801;50.972;7.856;2023-04-06T01:09:48;12.27;;;8.03;;
5555;SDS011;2801;50.972;7.856;2023-04-06T01:12:15;13.30;;;7.60;;
5555;SDS011;2801;50.972;7.856;2023-04-06T01:14:42;13.60;;;7.77;;
5555;SDS011;2801;50.972;7.856;2023-04-06T01:17:09;11.90;;;7.33;;
5555;SDS011;2801;50.972;7.856;2023-04-06T01:19:36;11.57;;;7.00;;
5555;SDS011;2801;50.972;7.856;2023-04-06T01:22:03;11.57;;;6.97;;
5555;SDS011;2801;50.972;7.856;2023-04-06T01:24:31;13.90;;;7.37;;
5555;SDS011;2801;50.972;7.856;2023-04-06T01:26:59;11.77;;;7.57;;
5555;SDS011;2801;50.972;7.856;2023-04-06T01:29:27;13.30;;;7.27;;
5555;SDS011;2801;50.972;7.856;2023-04-06T01:31:54;13.57;;;7.30;;
5555;SDS011;2801;50.972;7.856;2023-04-06T01:34:21;12.10;;;7.43;;
5555;SDS011;2801;50.972;7.856;2023-04-06T01:36:48;13.97;;;7.93;;
5555;SDS011;2801;50.972;7.856;2023-04-06T01:39:16;12.97;;;7.90;;
5555;SDS011;2801;50.972;7.856;2023-04-06T01:41:43;13.83;;;7.70;;
5555;SDS011;2801;50.972;7.856;2023-04-06T01:44:10;13.20;;;7.67;;
5555;SDS011;2801;50.972;7.856;2023-04-06T01:46:37;14.83;;;8.10;;
5555;SDS011;2801;50.972;7.856;2023-04-06T01:49:04;14.03;;;8.17;;
5555;SDS011;2801;50.972;7.856;2023-04-06T01:51:32;13.90;;;8.17;;
5555;SDS011;2801;50.972;7.856;2023-04-06T01:54:04;12.97;;;7.67;;
5555;SDS011;2801;50.972;7.856;2023-04-06T01:56:31;11.43;;;7.40;;
5555;SDS011;2801;50.972;7.856;2023-04-06T01:58:58;11.23;;;7.10;;
5555;SDS011;2801;50.972;7.856;2023-04-06T02:01:25;13.23;;;7.20;;
5555;SDS011;2801;50.972;7.856;2023-04-06T02:03:52;11.33;;;6.93;;
5555;SDS011;2801;50.972;7.856;2023-04-06T02:06:19;16.70;;;7.13;;
5555;SDS011;2801;50.972;7.856;2023-04-06T02:08:46;13.63;;;7.57;;
5555;SDS011;2801;50.972;7.856;2023-04-06T02:11:13;12.00;;;6.70;;
5555;SDS011;2801;50.972;7.856;2023-04-06T02:13:41;12.70;;;7.13;;
5555;SDS011;2801;50.972;7.856;2023-04-06T02:16:08;12.80;;;7.37;;
5555;SDS011;2801;50.972;7.856;2023-04-06T02:18:35;11.33;;;6.87;;
5555;SDS011;2801;50.972;7.856;2023-04-06T02:21:02;14.10;;;8.20;;
5555;SDS011;2801;50.972;7.856;2023-04-06T02:23:30;10.97;;;7.50;;
5555;SDS011;2801;50.972;7.856;2023-04-06T02:25:57;13.10;;;7.60;;
5555;SDS011;2801;50.972;7.856;2023-04-06T02:28:24;14.53;;;7.87;;
5555;SDS011;2801;50.972;7.856;2023-04-06T02:30:51;10.70;;;7.23;;
5555;SDS011;2801;50.972;7.856;2023-04-06T02:33:18;10.63;;;6.80;;
5555;SDS011;2801;50.972;7.856;2023-04-06T02:35:45;12.13;;;6.93;;
5555;SDS011;2801;50.972;7.856;2023-04-06T02:38:12;11.30;;;6.53;;
5555;SDS011;2801;50.972;7.856;2023-04-06T02:40:39;11.10;;;6.90;;
5555;SDS011;2801;50.972;7.856;2023-04-06T02:43:06;10.60;;;6.57;;
5555;SDS011;2801;50.972;7.856;2023-04-06T02:45:34;10.20;;;6.60;;
5555;SDS011;2801;50.972;7.856;2023-04-06T02:48:01;9.77;;;6.03;;
5555;SDS011;2801;50.972;7.856;2023-04-06T02:50:28;11.53;;;6.63;;
5555;SDS011;2801;50.972;7.856;2023-04-06T02:52:55;12.30;;;7.03;;
5555;SDS011;2801;50.972;7.856;2023-04-06T02:55:22;9.80;;;6.40;;
5555;SDS011;2801;50.972;7.856;2023-04-06T02:57:49;9.87;;;6.43;;
5555;SDS011;2801;50.972;7.856;2023-04-06T03:00:16;13.83;;;6.47;;
5555;SDS011;2801;50.972;7.856;2023-04-06T03:02:44;10.67;;;6.47;;
5555;SDS011;2801;50.972;7.856;2023-04-06T03:05:11;11.23;;;6.67;;
5555;SDS011;2801;50.972;7.856;2023-04-06T03:07:38;11.33;;;6.70;;
5555;SDS011;2801;50.972;7.856;2023-04-06T03:10:05;10.97;;;6.40;;
5555;SDS011;2801;50.972;7.856;2023-04-06T03:12:33;10.20;;;6.07;;
5555;SDS011;2801;50.972;7.856;2023-04-06T03:15:00;9.10;;;6.10;;
5555;SDS011;2801;50.972;7.856;2023-04-06T03:17:27;11.57;;;6.30;;
5555;SDS011;2801;50.972;7.856;2023-04-06T03:19:54;10.47;;;6.37;;
5555;SDS011;2801;50.972;7.856;2023-04-06T03:22:22;13.07;;;6.40;;
5555;SDS011;2801;50.972;7.856;2023-04-06T03:24:49;10.33;;;6.03;;
5555;SDS011;2801;50.972;7.856;2023-04-06T03:27:16;13.13;;;6.10;;
5555;SDS011;2801;50.972;7.856;2023-04-06T03:29:43;10.17;;;6.70;;
5555;SDS011;2801;50.972;7.856;2023-04-06T03:32:10;14.50;;;6.47;;
5555;SDS011;2801;50.972;7.856;2023-04-06T03:34:37;10.73;;;6.53;;
5555;SDS011;2801;50.972;7.856;2023-04-06T03:37:05;11.20;;;6.37;;
5555;SDS011;2801;50.972;7.856;2023-04-06T03:39:36;11.47;;;6.67;;
5555;SDS011;2801;50.972;7.856;2023-04-06T03:42:03;11.50;;;6.27;;
5555;SDS011;2801;50.972;7.856;2023-04-06T03:44:30;12.23;;;6.73;;
5555;SDS011;2801;50.972;7.856;2023-04-06T03:46:58;11.40;;;6.90;;
5555;SDS011;2801;50.972;7.856;2023-04-06T03:49:25;9.77;;;6.20;;
5555;SDS011;2801;50.972;7.856;2023-04-06T03:51:52;11.83;;;6.90;;
5555;SDS011;2801;50.972;7.856;2023-04-06T03:54:20;14.53;;;7.47;;
5555;SDS011;2801;50.972;7.856;2023-04-06T03:56:48;12.83;;;6.90;;
5555;SDS011;2801;50.972;7.856;2023-04-06T03:59:15;13.30;;;7.07;;
5555;SDS011;2801;50.972;7.856;2023-04-06T04:01:42;14.27;;;8.47;;
5555;SDS011;2801;50.972;7.856;2023-04-06T04:04:10;17.00;;;9.63;;
5555;SDS011;2801;50.972;7.856;2023-04-06T04:06:37;16.63;;;9.50;;
5555;SDS011;2801;50.972;7.856;2023-04-06T04:09:04;16.43;;;8.90;;
5555;SDS011;2801;50.972;7.856;2023-04-06T04:11:31;25.57;;;15.23;;
5555;SDS011;2801;50.972;7.856;2023-04-06T04:13:58;20.73;;;13.67;;
5555;SDS011;2801;50.972;7.856;2023-04-06T04:16:25;17.53;;;9.67;;
5555;SDS011;2801;50.972;7.856;2023-04-06T04:18:52;17.40;;;10.20;;
5555;SDS011;2801;50.972;7.856;2023-04-06T04:21:19;16.00;;;8.47;;
5555;SDS011;2801;50.972;7.856;2023-04-06T04:23:46;15.70;;;7.87;;
5555;SDS011;2801;50.972;7.856;2023-04-06T04:26:13;15.73;;;8.63;;
5555;SDS011;2801;50.972;7.856;2023-04-06T04:28:40;12.90;;;7.80;;
5555;SDS011;2801;50.972;7.856;2023-04-06T04:31:07;16.10;;;8.27;;
5555;SDS011;2801;50.972;7.856;2023-04-06T04:33:35;16.20;;;8.13;;
5555;SDS011;2801;50.972;7.856;2023-04-06T04:36:02;13.80;;;8.13;;
5555;SDS011;2801;50.972;7.856;2023-04-06T04:38:29;13.03;;;7.17;;
5555;SDS011;2801;50.972;7.856;2023-04-06T04:40:56;16.60;;;8.03;;
5555;SDS011;2801;50.972;7.856;2023-04-06T04:43:23;16.47;;;8.53;;
5555;SDS011;2801;50.972;7.856;2023-04-06T04:45:50;15.67;;;8.20;;
5555;SDS011;2801;50.972;7.856;2023-04-06T04:48:18;15.17;;;8.73;;
5555;SDS011;2801;50.972;7.856;2023-04-06T04:50:46;16.90;;;9.03;;
5555;SDS011;2801;50.972;7.856;2023-04-06T04:53:13;13.97;;;7.93;;
5555;SDS011;2801;50.972;7.856;2023-04-06T04:55:40;14.53;;;7.53;;
5555;SDS011;2801;50.972;7.856;2023-04-06T04:58:07;11.73;;;7.03;;
5555;SDS011;2801;50.972;7.856;2023-04-06T05:00:35;13.37;;;7.97;;
5555;SDS011;2801;50.972;7.856;2023-04-06T05:03:02;10.07;;;6.20;;
5555;SDS011;2801;50.972;7.856;2023-04-06T05:05:31;12.67;;;6.90;;
5555;SDS011;2801;50.972;7.856;2023-04-06T05:07:58;10.83;;;7.57;;
5555;SDS011;2801;50.972;7.856;2023-04-06T05:10:25;12.90;;;7.60;;
5555;SDS011;2801;50.972;7.856;2023-04-06T05:12:53;16.50;;;8.83;;
5555;SDS011;2801;50.972;7.856;2023-04-06T05:15:20;14.00;;;8.20;;
5555;SDS011;2801;50.972;7.856;2023-04-06T05:17:47;18.17;;;9.33;;
5555;SDS011;2801;50.972;7.856;2023-04-06T05:20:14;15.30;;;8.77;;
5555;SDS011;2801;50.972;7.856;2023-04-06T05:22:42;14.00;;;8.93;;
5555;SDS011;2801;50.972;7.856;2023-04-06T05:25:09;15.43;;;8.80;;
5555;SDS011;2801;50.972;7.856;2023-04-06T05:27:36;16.17;;;8.70;;
5555;SDS011;2801;50.972;7.856;2023-04-06T05:30:03;17.57;;;9.03;;
5555;SDS011;2801;50.972;7.856;2023-04-06T05:32:31;14.70;;;8.50;;
5555;SDS011;2801;50.972;7.856;2023-04-06T05:34:59;12.30;;;7.27;;
5555;SDS011;2801;50.972;7.856;2023-04-06T05:37:26;14.50;;;8.67;;
5555;SDS011;2801;50.972;7.856;2023-04-06T05:39:53;14.80;;;8.37;;
5555;SDS011;2801;50.972;7.856;2023-04-06T05:42:21;14.20;;;8.67;;
5555;SDS011;2801;50.972;7.856;2023-04-06T05:44:49;15.57;;;9.03;;
5555;SDS011;2801;50.972;7.856;2023-04-06T05:47:16;15.57;;;10.07;;
5555;SDS011;2801;50.972;7.856;2023-04-06T05:49:43;14.50;;;9.37;;
5555;SDS011;2801;50.972;7.856;2023-04-06T05:52:10;15.33;;;8.50;;
5555;SDS011;2801;50.972;7.856;2023-04-06T05:54:37;15.90;;;8.43;;
5555;SDS011;2801;50.972;7.856;2023-04-06T05:57:04;12.27;;;8.13;;
5555;SDS011;2801;50.972;7.856;2023-04-06T05:59:31;14.53;;;8.60;;
5555;SDS011;2801;50.972;7.856;2023-04-06T06:01:58;13.10;;;8.43;;
5555;SDS011;2801;50.972;7.856;2023-04-06T06:04:27;18.90;;;10.40;;
5555;SDS011;2801;50.972;7.856;2023-04-06T06:06:54;16.97;;;10.73;;
5555;SDS011;2801;50.972;7.856;2023-04-06T06:09:21;16.93;;;10.73;;
5555;SDS011;2801;50.972;7.856;2023-04-06T06:11:48;14.87;;;8.77;;
5555;SDS011;2801;50.972;7.856;2023-04-06T06:14:16;18.20;;;8.97;;
5555;SDS011;2801;50.972;7.856;2023-04-06T06:16:43;13.80;;;8.67;;
5555;SDS011;2801;50.972;7.856;2023-04-06T06:19:10;10.00;;;6.77;;
5555;SDS011;2801;50.972;7.856;2023-04-06T06:21:37;13.83;;;8.13;;
5555;SDS011;2801;50.972;7.856;2023-04-06T06:24:04;16.17;;;8.07;;
5555;SDS011;2801;50.972;7.856;2023-04-06T06:26:32;15.57;;;9.23;;
5555;SDS011;2801;50.972;7.856;2023-04-06T06:29:01;15.40;;;9.37;;
5555;SDS011;2801;50.972;7.856;2023-04-06T06:31:31;14.50;;;8.70;;
5555;SDS011;2801;50.972;7.856;2023-04-06T06:33:59;14.83;;;8.93;;
5555;SDS011;2801;50.972;7.856;2023-04-06T06:36:26;15.83;;;8.90;;
5555;SDS011;2801;50.972;7.856;2023-04-06T06:38:53;12.27;;;7.77;;
5555;SDS011;2801;50.972;7.856;2023-04-06T06:41:20;11.67;;;6.73;;
5555;SDS011;2801;50.972;7.856;2023-04-06T06:43:47;11.53;;;7.13;;
5555;SDS011;2801;50.972;7.856;2023-04-06T06:46:14;9.07;;;5.97;;
5555;SDS011;2801;50.972;7.856;2023-04-06T06:48:41;11.03;;;6.47;;
5555;SDS011;2801;50.972;7.856;2023-04-06T06:51:09;10.97;;;6.43;;
5555;SDS011;2801;50.972;7.856;2023-04-06T06:53:38;12.80;;;6.83;;
5555;SDS011;2801;50.972;7.856;2023-04-06T06:56:05;10.70;;;6.43;;
5555;SDS011;2801;50.972;7.856;2023-04-06T06:58:32;9.90;;;6.30;;
5555;SDS011;2801;50.972;7.856;2023-04-06T07:00:59;10.20;;;6.37;;
5555;SDS011;2801;50.972;7.856;2023-04-06T07:03:27;9.40;;;6.07;;
5555;SDS011;2801;50.972;7.856;2023-04-06T07:05:54;9.65;;;6.25;;
5555;SDS011;2801;50.972;7.856;2023-04-06T07:08:22;9.33;;;5.40;;
5555;SDS011;2801;50.972;7.856;2023-04-06T07:10:50;8.90;;;5.77;;
5555;SDS011;2801;50.972;7.856;2023-04-06T07:13:19;8.47;;;5.47;;
5555;SDS011;2801;50.972;7.856;2023-04-06T07:15:50;11.45;;;5.75;;
5555;SDS011;2801;50.972;7.856;2023-04-06T07:18:20;13.15;;;6.30;;
5555;SDS011;2801;50.972;7.856;2023-04-06T07:20:48;9.68;;;5.43;;
5555;SDS011;2801;50.972;7.856;2023-04-06T07:23:16;11.18;;;6.47;;
5555;SDS011;2801;50.972;7.856;2023-04-06T07:25:43;11.43;;;6.38;;
5555;SDS011;2801;50.972;7.856;2023-04-06T07:28:10;10.63;;;6.30;;
5555;SDS011;2801;50.972;7.856;2023-04-06T07:30:37;9.50;;;6.20;;
5555;SDS011;2801;50.972;7.856;2023-04-06T07:33:05;12.13;;;6.35;;
5555;SDS011;2801;50.972;7.856;2023-04-06T07:35:32;9.38;;;6.57;;
5555;SDS011;2801;50.972;7.856;2023-04-06T07:38:01;12.93;;;6.00;;
5555;SDS011;2801;50.972;7.856;2023-04-06T07:40:29;8.15;;;5.88;;
5555;SDS011;2801;50.972;7.856;2023-04-06T07:42:58;9.73;;;6.20;;
5555;SDS011;2801;50.972;7.856;2023-04-06T07:45:26;12.75;;;6.65;;
5555;SDS011;2801;50.972;7.856;2023-04-06T07:47:53;12.05;;;6.40;;
5555;SDS011;2801;50.972;7.856;2023-04-06T07:50:20;11.55;;;6.57;;
5555;SDS011;2801;50.972;7.856;2023-04-06T07:52:47;10.80;;;7.05;;
5555;SDS011;2801;50.972;7.856;2023-04-06T07:55:16;12.95;;;5.97;;
5555;SDS011;2801;50.972;7.856;2023-04-06T07:57:43;10.20;;;6.53;;
5555;SDS011;2801;50.972;7.856;2023-04-06T08:00:10;10.95;;;5.97;;
5555;SDS011;2801;50.972;7.856;2023-04-06T08:02:39;9.95;;;6.60;;
5555;SDS011;2801;50.972;7.856;2023-04-06T08:05:06;11.05;;;6.90;;
5555;SDS011;2801;50.972;7.856;2023-04-06T08:07:34;10.82;;;6.68;;
5555;SDS011;2801;50.972;7.856;2023-04-06T08:10:02;15.40;;;7.63;;
5555;SDS011;2801;50.972;7.856;2023-04-06T08:12:31;12.68;;;7.38;;
5555;SDS011;2801;50.972;7.856;2023-04-06T08:15:00;12.68;;;7.63;;
5555;SDS011;2801;50.972;7.856;2023-04-06T08:17:28;12.38;;;7.35;;
5555;SDS011;2801;50.972;7.856;2023-04-06T08:19:57;10.70;;;5.10;;
5555;SDS011;2801;50.972;7.856;2023-04-06T08:22:24;10.70;;;6.72;;
5555;SDS011;2801;50.972;7.856;2023-04-06T08:24:51;11.20;;;7.30;;
5555;SDS011;2801;50.972;7.856;2023-04-06T08:27:19;12.68;;;7.20;;
5555;SDS011;2801;50.972;7.856;2023-04-06T08:29:47;13.05;;;7.65;;
5555;SDS011;2801;50.972;7.856;2023-04-06T08:32:15;11.35;;;7.13;;
5555;SDS011;2801;50.972;7.856;2023-04-06T08:34:43;11.73;;;7.07;;
5555;SDS011;2801;50.972;7.856;2023-04-06T08:37:10;10.82;;;6.82;;
5555;SDS011;2801;50.972;7.856;2023-04-06T08:39:37;13.50;;;7.65;;
5555;SDS011;2801;50.972;7.856;2023-04-06T08:42:04;11.27;;;7.45;;
5555;SDS011;2801;50.972;7.856;2023-04-06T08:44:38;13.85;;;7.65;;
5555;SDS011;2801;50.972;7.856;2023-04-06T08:47:07;14.93;;;8.57;;
5555;SDS011;2801;50.972;7.856;2023-04-06T08:49:34;14.10;;;8.25;;
5555;SDS011;2801;50.972;7.856;2023-04-06T08:52:08;14.35;;;8.68;;
5555;SDS011;2801;50.972;7.856;2023-04-06T08:54:37;18.80;;;8.32;;
5555;SDS011;2801;50.972;7.856;2023-04-06T08:57:05;16.58;;;8.60;;
5555;SDS011;2801;50.972;7.856;2023-04-06T08:59:33;14.15;;;8.57;;
5555;SDS011;2801;50.972;7.856;2023-04-06T09:02:03;14.98;;;8.93;;
5555;SDS011;2801;50.972;7.856;2023-04-06T09:04:32;17.05;;;8.85;;
5555;SDS011;2801;50.972;7.856;2023-04-06T09:07:01;14.65;;;9.10;;
5555;SDS011;2801;50.972;7.856;2023-04-06T09:09:29;16.13;;;8.65;;
5555;SDS011;2801;50.972;7.856;2023-04-06T09:11:56;15.63;;;9.35;;
5555;SDS011;2801;50.972;7.856;2023-04-06T09:14:38;13.63;;;8.57;;
5555;SDS011;2801;50.972;7.856;2023-04-06T09:17:05;14.40;;;8.85;;
5555;SDS011;2801;50.972;7.856;2023-04-06T09:19:33;15.15;;;8.45;;
5555;SDS011;2801;50.972;7.856;2023-04-06T09:22:03;13.90;;;7.32;;
5555;SDS011;2801;50.972;7.856;2023-04-06T09:24:46;14.35;;;8.48;;
5555;SDS011;2801;50.972;7.856;2023-04-06T09:27:16;17.35;;;9.40;;
5555;SDS011;2801;50.972;7.856;2023-04-06T09:29:44;15.07;;;9.57;;
5555;SDS011;2801;50.972;7.856;2023-04-06T09:32:11;16.50;;;9.07;;
5555;SDS011;2801;50.972;7.856;2023-04-06T09:34:42;16.55;;;9.90;;
5555;SDS011;2801;50.972;7.856;2023-04-06T09:37:17;14.63;;;9.70;;
5555;SDS011;2801;50.972;7.856;2023-04-06T09:39:46;16.00;;;9.55;;
5555;SDS011;2801;50.972;7.856;2023-04-06T09:42:23;16.20;;;8.50;;
5555;SDS011;2801;50.972;7.856;2023-04-06T09:44:54;14.25;;;9.43;;
5555;SDS011;2801;50.972;7.856;2023-04-06T09:47:21;16.00;;;8.30;;
5555;SDS011;2801;50.972;7.856;2023-04-06T09:49:55;13.77;;;7.40;;
5555;SDS011;2801;50.972;7.856;2023-04-06T09:52:27;16.75;;;8.90;;
5555;SDS011;2801;50.972;7.856;2023-04-06T09:55:06;15.20;;;9.13;;
5555;SDS011;2801;50.972;7.856;2023-04-06T09:57:45;14.77;;;8.75;;
5555;SDS011;2801;50.972;7.856;2023-04-06T10:00:56;15.18;;;8.45;;
5555;SDS011;2801;50.972;7.856;2023-04-06T10:03:45;16.80;;;9.43;;
5555;SDS011;2801;50.972;7.856;2023-04-06T10:06:21;15.68;;;8.25;;
5555;SDS011;2801;50.972;7.856;2023-04-06T10:08:55;15.45;;;8.18;;
5555;SDS011;2801;50.972;7.856;2023-04-06T10:11:24;14.13;;;7.95;;
5555;SDS011;2801;50.972;7.856;2023-04-06T10:13:51;13.95;;;8.52;;
5555;SDS011;2801;50.972;7.856;2023-04-06T10:16:18;16.15;;;8.45;;
5555;SDS011;2801;50.972;7.856;2023-04-06T10:18:46;17.20;;;8.70;;
5555;SDS011;2801;50.972;7.856;2023-04-06T10:21:20;15.32;;;8.30;;
5555;SDS011;2801;50.972;7.856;2023-04-06T10:23:58;15.95;;;8.55;;
5555;SDS011;2801;50.972;7.856;2023-04-06T10:26:28;13.38;;;7.35;;
5555;SDS011;2801;50.972;7.856;2023-04-06T10:29:01;17.25;;;8.48;;
5555;SDS011;2801;50.972;7.856;2023-04-06T10:31:32;13.32;;;7.45;;
5555;SDS011;2801;50.972;7.856;2023-04-06T10:34:00;13.65;;;8.23;;
5555;SDS011;2801;50.972;7.856;2023-04-06T10:36:31;13.15;;;7.70;;
5555;SDS011;2801;50.972;7.856;2023-04-06T10:39:01;14.88;;;7.43;;
5555;SDS011;2801;50.972;7.856;2023-04-06T10:41:33;15.38;;;7.63;;
5555;SDS011;2801;50.972;7.856;2023-04-06T10:44:21;15.30;;;7.78;;
5555;SDS011;2801;50.972;7.856;2023-04-06T10:46:57;13.85;;;7.75;;
5555;SDS011;2801;50.972;7.856;2023-04-06T10:49:29;16.23;;;8.88;;
5555;SDS011;2801;50.972;7.856;2023-04-06T10:51:56;13.88;;;7.75;;
5555;SDS011;2801;50.972;7.856;2023-04-06T10:54:24;14.48;;;8.18;;
5555;SDS011;2801;50.972;7.856;2023-04-06T10:56:53;13.75;;;7.72;;
5555;SDS011;2801;50.972;7.856;2023-04-06T10:59:22;12.70;;;7.60;;
5555;SDS011;2801;50.972;7.856;2023-04-06T11:01:51;14.65;;;8.52;;
5555;SDS011;2801;50.972;7.856;2023-04-06T11:04:19;13.95;;;8.02;;
5555;SDS011;2801;50.972;7.856;2023-04-06T11:06:48;14.45;;;7.97;;
5555;SDS011;2801;50.972;7.856;2023-04-06T11:09:49;14.27;;;7.82;;
5555;SDS011;2801;50.972;7.856;2023-04-06T11:12:36;15.07;;;7.38;;
5555;SDS011;2801;50.972;7.856;2023-04-06T11:15:03;15.32;;;6.93;;
5555;SDS011;2801;50.972;7.856;2023-04-06T11:17:33;13.20;;;7.38;;
5555;SDS011;2801;50.972;7.856;2023-04-06T11:20:03;14.30;;;7.10;;
5555;SDS011;2801;50.972;7.856;2023-04-06T11:22:47;14.82;;;8.02;;
5555;SDS011;2801;50.972;7.856;2023-04-06T11:25:16;15.65;;;7.85;;
5555;SDS011;2801;50.972;7.856;2023-04-06T11:27:43;15.15;;;8.25;;
5555;SDS011;2801;50.972;7.856;2023-04-06T11:30:13;14.43;;;7.72;;
5555;SDS011;2801;50.972;7.856;2023-04-06T11:32:42;15.32;;;8.15;;
5555;SDS011;2801;50.972;7.856;2023-04-06T11:35:21;14.38;;;8.35;;
5555;SDS011;2801;50.972;7.856;2023-04-06T11:37:50;13.90;;;7.70;;
5555;SDS011;2801;50.972;7.856;2023-04-06T11:40:23;13.05;;;7.53;;
5555;SDS011;2801;50.972;7.856;2023-04-06T11:42:55;17.58;;;8.20;;
5555;SDS011;2801;50.972;7.856;2023-04-06T11:45:26;15.68;;;8.15;;
5555;SDS011;2801;50.972;7.856;2023-04-06T11:47:57;14.93;;;8.45;;
5555;SDS011;2801;50.972;7.856;2023-04-06T11:50:31;16.10;;;8.30;;
5555;SDS011;2801;50.972;7.856;2023-04-06T11:53:01;15.45;;;8.43;;
5555;SDS011;2801;50.972;7.856;2023-04-06T11:55:29;15.30;;;8.65;;
5555;SDS011;2801;50.972;7.856;2023-04-06T11:58:05;15.77;;;8.55;;
5555;SDS011;2801;50.972;7.856;2023-04-06T12:00:33;17.08;;;8.95;;
5555;SDS011;2801;50.972;7.856;2023-04-06T12:03:00;14.98;;;8.88;;
5555;SDS011;2801;50.972;7.856;2023-04-06T12:05:28;14.50;;;8.60;;
5555;SDS011;2801;50.972;7.856;2023-04-06T12:07:55;15.73;;;8.35;;
5555;SDS011;2801;50.972;7.856;2023-04-06T12:10:27;16.20;;;9.40;;
5555;SDS011;2801;50.972;7.856;2023-04-06T12:12:54;17.73;;;9.27;;
5555;SDS011;2801;50.972;7.856;2023-04-06T12:15:21;14.98;;;9.15;;
5555;SDS011;2801;50.972;7.856;2023-04-06T12:17:48;16.85;;;7.25;;
5555;SDS011;2801;50.972;7.856;2023-04-06T12:20:16;15.95;;;8.57;;
5555;SDS011;2801;50.972;7.856;2023-04-06T12:22:52;11.07;;;5.55;;
5555;SDS011;2801;50.972;7.856;2023-04-06T12:25:19;13.80;;;7.95;;
5555;SDS011;2801;50.972;7.856;2023-04-06T12:27:47;14.13;;;8.52;;
5555;SDS011;2801;50.972;7.856;2023-04-06T12:30:14;17.33;;;9.10;;
5555;SDS011;2801;50.972;7.856;2023-04-06T12:32:41;16.98;;;8.07;;
5555;SDS011;2801;50.972;7.856;2023-04-06T12:35:08;13.75;;;8.38;;
5555;SDS011;2801;50.972;7.856;2023-04-06T12:37:37;14.80;;;7.55;;
5555;SDS011;2801;50.972;7.856;2023-04-06T12:40:05;13.95;;;8.00;;
5555;SDS011;2801;50.972;7.856;2023-04-06T12:42:33;15.55;;;9.18;;
5555;SDS011;2801;50.972;7.856;2023-04-06T12:45:00;16.55;;;8.65;;
5555;SDS011;2801;50.972;7.856;2023-04-06T12:47:27;17.60;;;9.10;;
5555;SDS011;2801;50.972;7.856;2023-04-06T12:49:55;15.77;;;7.97;;
5555;SDS011;2801;50.972;7.856;2023-04-06T12:52:22;15.85;;;8.20;;
5555;SDS011;2801;50.972;7.856;2023-04-06T12:54:49;25.98;;;10.20;;
5555;SDS011;2801;50.972;7.856;2023-04-06T12:57:17;13.90;;;8.10;;
5555;SDS011;2801;50.972;7.856;2023-04-06T12:59:45;15.77;;;9.13;;
5555;SDS011;2801;50.972;7.856;2023-04-06T13:02:12;15.48;;;8.60;;
5555;SDS011;2801;50.972;7.856;2023-04-06T13:04:39;16.40;;;8.40;;
5555;SDS011;2801;50.972;7.856;2023-04-06T13:07:07;19.25;;;9.00;;
5555;SDS011;2801;50.972;7.856;2023-04-06T13:09:34;14.27;;;8.65;;
5555;SDS011;2801;50.972;7.856;2023-04-06T13:12:01;15.40;;;8.32;;
5555;SDS011;2801;50.972;7.856;2023-04-06T13:14:29;14.48;;;8.63;;
5555;SDS011;2801;50.972;7.856;2023-04-06T13:16:57;16.75;;;9.23;;
5555;SDS011;2801;50.972;7.856;2023-04-06T13:19:24;14.38;;;8.10;;
5555;SDS011;2801;50.972;7.856;2023-04-06T13:21:51;16.08;;;8.40;;
5555;SDS011;2801;50.972;7.856;2023-04-06T13:24:18;13.98;;;8.05;;
5555;SDS011;2801;50.972;7.856;2023-04-06T13:26:46;14.20;;;7.45;;
5555;SDS011;2801;50.972;7.856;2023-04-06T13:29:13;13.57;;;7.68;;
5555;SDS011;2801;50.972;7.856;2023-04-06T13:31:40;13.52;;;8.52;;
5555;SDS011;2801;50.972;7.856;2023-04-06T13:34:07;12.93;;;8.25;;
5555;SDS011;2801;50.972;7.856;2023-04-06T13:36:34;14.27;;;7.90;;
5555;SDS011;2801;50.972;7.856;2023-04-06T13:39:01;12.82;;;7.75;;
5555;SDS011;2801;50.972;7.856;2023-04-06T13:41:29;12.20;;;7.55;;
5555;SDS011;2801;50.972;7.856;2023-04-06T13:43:56;13.63;;;7.53;;
5555;SDS011;2801;50.972;7.856;2023-04-06T13:46:24;13.90;;;7.57;;
5555;SDS011;2801;50.972;7.856;2023-04-06T13:48:51;12.70;;;7.00;;
5555;SDS011;2801;50.972;7.856;2023-04-06T13:51:18;14.43;;;7.57;;
5555;SDS011;2801;50.972;7.856;2023-04-06T13:53:45;10.85;;;7.53;;
5555;SDS011;2801;50.972;7.856;2023-04-06T13:56:12;13.40;;;7.80;;
5555;SDS011;2801;50.972;7.856;2023-04-06T13:58:39;13.05;;;7.18;;
5555;SDS011;2801;50.972;7.856;2023-04-06T14:01:07;11.13;;;7.75;;
5555;SDS011;2801;50.972;7.856;2023-04-06T14:03:37;11.70;;;6.45;;
5555;SDS011;2801;50.972;7.856;2023-04-06T14:06:10;9.85;;;6.25;;
5555;SDS011;2801;50.972;7.856;2023-04-06T14:08:52;10.38;;;6.22;;
5555;SDS011;2801;50.972;7.856;2023-04-06T14:11:19;11.15;;;6.75;;
5555;SDS011;2801;50.972;7.856;2023-04-06T14:13:46;11.68;;;6.93;;
5555;SDS011;2801;50.972;7.856;2023-04-06T14:16:13;10.90;;;6.97;;
5555;SDS011;2801;50.972;7.856;2023-04-06T14:18:41;13.70;;;7.57;;
5555;SDS011;2801;50.972;7.856;2023-04-06T14:21:08;12.73;;;7.35;;
5555;SDS011;2801;50.972;7.856;2023-04-06T14:23:36;14.95;;;7.10;;
5555;SDS011;2801;50.972;7.856;2023-04-06T14:26:03;13.45;;;6.80;;
5555;SDS011;2801;50.972;7.856;2023-04-06T14:28:32;11.27;;;6.78;;
5555;SDS011;2801;50.972;7.856;2023-04-06T14:31:01;12.43;;;6.20;;
5555;SDS011;2801;50.972;7.856;2023-04-06T14:33:38;12.88;;;6.43;;
5555;SDS011;2801;50.972;7.856;2023-04-06T14:36:06;9.82;;;3.85;;
5555;SDS011;2801;50.972;7.856;2023-04-06T14:38:35;7.78;;;3.47;;
5555;SDS011;2801;50.972;7.856;2023-04-06T14:41:02;8.30;;;3.67;;
5555;SDS011;2801;50.972;7.856;2023-04-06T14:43:29;8.85;;;4.70;;
5555;SDS011;2801;50.972;7.856;2023-04-06T14:45:59;10.68;;;5.47;;
5555;SDS011;2801;50.972;7.856;2023-04-06T14:48:28;11.60;;;6.50;;
5555;SDS011;2801;50.972;7.856;2023-04-06T14:50:55;11.60;;;6.32;;
5555;SDS011;2801;50.972;7.856;2023-04-06T14:53:23;11.48;;;6.18;;
5555;SDS011;2801;50.972;7.856;2023-04-06T14:55:51;11.52;;;6.00;;
5555;SDS011;2801;50.972;7.856;2023-04-06T14:58:19;11.85;;;6.80;;
5555;SDS011;2801;50.972;7.856;2023-04-06T15:00:47;9.48;;;5.75;;
5555;SDS011;2801;50.972;7.856;2023-04-06T15:03:15;12.10;;;7.07;;
5555;SDS011;2801;50.972;7.856;2023-04-06T15:05:44;12.73;;;6.47;;
5555;SDS011;2801;50.972;7.856;2023-04-06T15:08:11;12.35;;;7.05;;
5555;SDS011;2801;50.972;7.856;2023-04-06T15:10:39;12.57;;;7.40;;